Time;durP1;ratioP1;P1;durP2;ratioP2;P2;SDS_P1;SDS_P2;PMS_P1;PMS_P2;Temp;Humidity;BMP_temperature;BMP_pressure;BME280_temperature;BME280_humidity;BME280_pressure;Samples;Min_cycle;Max_cycle;Signal;HPM_P1;HPM_P2
2022/04/04 00:01:15;;;;;;;6.90;6.20;;;5.10;77.50;;;;;;5057532;28;20063;-56
2022/04/04 00:03:40;;;;;;;7.63;6.72;;;5.10;77.70;;;;;;5064245;28;20025;-56
2022/04/04 00:06:07;;;;;;;7.65;6.88;;;5.10;77.40;;;;;;5092460;28;20024;-57
2022/04/04 00:08:33;;;;;;;6.97;6.28;;;5.10;77.50;;;;;;5069158;28;20060;-56
2022/04/04 00:11:00;;;;;;;7.60;6.60;;;5.10;77.40;;;;;;5079975;28;20031;-57
2022/04/04 00:13:27;;;;;;;7.95;7.15;;;5.00;77.30;;;;;;5091437;28;20020;-57
2022/04/04 00:15:53;;;;;;;7.60;6.90;;;5.00;77.30;;;;;;5086449;28;20118;-56
2022/04/04 00:18:18;;;;;;;7.60;6.90;;;5.00;77.60;;;;;;5086792;28;20024;-57
2022/04/04 00:20:44;;;;;;;7.50;6.72;;;5.10;77.70;;;;;;5095398;28;20078;-57
2022/04/04 00:23:13;;;;;;;7.47;6.78;;;5.00;77.60;;;;;;5094309;28;20085;-57
2022/04/04 00:25:43;;;;;;;8.18;6.93;;;5.10;77.70;;;;;;5095193;28;20052;-56
2022/04/04 00:28:09;;;;;;;7.97;6.47;;;5.00;77.70;;;;;;5090049;28;22491;-57
2022/04/04 00:30:36;;;;;;;6.72;6.00;;;5.00;77.60;;;;;;5068610;28;20021;-56
2022/04/04 00:33:02;;;;;;;7.05;6.00;;;5.00;77.60;;;;;;5086318;28;20062;-57
2022/04/04 00:35:28;;;;;;;7.55;6.85;;;5.00;77.50;;;;;;5069506;28;20017;-57
2022/04/04 00:37:54;;;;;;;7.28;6.53;;;5.00;77.50;;;;;;5083919;28;20028;-57
2022/04/04 00:40:20;;;;;;;7.53;6.72;;;4.90;77.50;;;;;;5088193;28;20411;-57
2022/04/04 00:42:46;;;;;;;7.50;6.60;;;4.90;77.50;;;;;;5095211;28;20016;-57
2022/04/04 00:45:12;;;;;;;6.82;6.13;;;4.90;77.80;;;;;;5094850;28;20020;-57
2022/04/04 00:47:38;;;;;;;6.75;6.05;;;4.80;77.90;;;;;;5095028;28;20020;-56
2022/04/04 00:50:05;;;;;;;7.60;6.78;;;4.80;77.70;;;;;;5092700;28;20059;-57
2022/04/04 00:52:30;;;;;;;7.32;6.40;;;4.80;77.70;;;;;;5091829;28;20020;-56
2022/04/04 00:54:56;;;;;;;7.38;6.40;;;4.80;77.90;;;;;;5094682;28;20043;-57
2022/04/04 00:57:22;;;;;;;6.53;5.82;;;4.80;77.70;;;;;;5083245;28;20064;-56
2022/04/04 00:59:49;;;;;;;8.30;6.82;;;4.80;77.60;;;;;;5081553;28;20032;-56
2022/04/04 01:02:15;;;;;;;8.60;6.65;;;4.70;77.60;;;;;;5079448;28;20073;-57
2022/04/04 01:04:41;;;;;;;9.95;6.90;;;4.70;77.50;;;;;;5094516;28;20035;-56
2022/04/04 01:07:07;;;;;;;8.45;6.90;;;4.70;77.60;;;;;;5091214;28;20431;-57
2022/04/04 01:09:33;;;;;;;7.28;6.57;;;4.70;77.60;;;;;;5075870;28;20036;-57
2022/04/04 01:12:12;;;;;;;9.55;7.43;;;4.70;77.30;;;;;;5079564;28;20039;-57
2022/04/04 01:14:48;;;;;;;7.38;6.60;;;4.70;77.20;;;;;;5087908;28;20027;-57
2022/04/04 01:17:19;;;;;;;8.05;7.25;;;4.70;77.30;;;;;;5094579;28;20086;-57
2022/04/04 01:19:45;;;;;;;8.57;7.25;;;4.70;77.30;;;;;;5079239;28;20062;-57
2022/04/04 01:22:13;;;;;;;9.57;8.10;;;4.70;77.30;;;;;;5094045;28;20024;-57
2022/04/04 01:24:39;;;;;;;8.75;7.82;;;4.70;77.40;;;;;;5084761;28;20025;-57
2022/04/04 01:27:07;;;;;;;10.82;9.20;;;4.70;77.60;;;;;;5094047;28;20020;-57
2022/04/04 01:29:32;;;;;;;9.63;8.55;;;4.70;77.50;;;;;;5065197;28;20055;-57
2022/04/04 01:31:58;;;;;;;8.90;7.97;;;4.70;77.40;;;;;;5070310;28;20028;-58
2022/04/04 01:34:24;;;;;;;8.38;7.43;;;4.80;77.40;;;;;;5087881;28;20370;-56
2022/04/04 01:36:51;;;;;;;8.50;7.43;;;4.80;77.40;;;;;;5075893;28;20025;-57
2022/04/04 01:39:17;;;;;;;8.55;7.75;;;4.90;77.30;;;;;;5075549;28;20044;-58
2022/04/04 01:41:43;;;;;;;10.57;7.38;;;4.90;77.00;;;;;;5080870;28;20031;-57
2022/04/04 01:44:10;;;;;;;9.07;7.28;;;5.00;76.70;;;;;;5080378;28;20028;-56
2022/04/04 01:46:35;;;;;;;10.23;8.88;;;5.00;76.30;;;;;;5093958;28;20024;-57
2022/04/04 01:49:03;;;;;;;9.18;8.27;;;5.10;76.30;;;;;;5093614;28;20040;-60
2022/04/04 01:51:30;;;;;;;10.30;9.23;;;5.10;76.10;;;;;;5093807;28;20024;-61
2022/04/04 01:53:57;;;;;;;9.02;8.05;;;5.10;75.80;;;;;;5093847;28;20673;-60
2022/04/04 01:56:23;;;;;;;10.73;8.05;;;5.10;75.80;;;;;;5093711;28;20111;-57
2022/04/04 01:58:49;;;;;;;8.73;7.82;;;5.00;75.70;;;;;;5082704;28;20433;-57
2022/04/04 02:01:20;;;;;;;9.50;7.47;;;5.00;75.70;;;;;;5069249;28;20028;-57
2022/04/04 02:03:48;;;;;;;7.60;6.73;;;5.00;75.80;;;;;;5093283;28;20032;-57
2022/04/04 02:06:14;;;;;;;10.52;7.30;;;5.00;75.60;;;;;;5093307;28;20024;-57
2022/04/04 02:08:42;;;;;;;11.32;7.97;;;4.90;75.50;;;;;;5072671;28;20021;-57
2022/04/04 02:11:07;;;;;;;7.97;7.15;;;4.90;75.30;;;;;;5093538;28;20498;-57
2022/04/04 02:13:34;;;;;;;10.20;7.55;;;4.90;75.20;;;;;;5093119;28;20095;-57
2022/04/04 02:16:01;;;;;;;10.32;8.02;;;4.90;75.20;;;;;;5087514;28;20031;-56
2022/04/04 02:18:36;;;;;;;8.43;7.07;;;4.90;75.10;;;;;;5077097;28;20028;-55
2022/04/04 02:21:03;;;;;;;9.18;7.53;;;4.80;75.00;;;;;;5093071;28;20036;-57
2022/04/04 02:23:29;;;;;;;7.78;6.97;;;4.80;74.70;;;;;;5092871;28;20099;-57
2022/04/04 02:25:56;;;;;;;8.38;7.47;;;4.80;74.80;;;;;;5093044;28;20051;-57
2022/04/04 02:28:23;;;;;;;9.45;7.18;;;4.70;74.70;;;;;;5087902;28;20104;-57
2022/04/04 02:30:49;;;;;;;8.32;7.13;;;4.70;74.70;;;;;;5059878;28;20554;-57
2022/04/04 02:33:16;;;;;;;7.57;6.65;;;4.70;74.50;;;;;;5070794;28;20032;-57
2022/04/04 02:35:42;;;;;;;7.43;6.53;;;4.70;74.30;;;;;;5086923;28;20028;-57
2022/04/04 02:38:08;;;;;;;7.18;6.47;;;4.70;74.30;;;;;;5072560;28;20030;-57
2022/04/04 02:40:34;;;;;;;6.95;6.28;;;4.60;74.10;;;;;;5076859;28;20040;-56
2022/04/04 02:43:01;;;;;;;7.50;6.70;;;4.60;73.90;;;;;;5092964;28;20472;-57
2022/04/04 02:45:26;;;;;;;9.27;7.63;;;4.60;73.90;;;;;;5092564;28;20020;-57
2022/04/04 02:47:52;;;;;;;7.20;6.50;;;4.60;73.80;;;;;;5090879;28;20415;-57
2022/04/04 02:50:18;;;;;;;7.55;6.80;;;4.50;73.60;;;;;;5090811;28;20052;-57
2022/04/04 02:52:44;;;;;;;8.35;6.93;;;4.50;73.50;;;;;;5092646;28;20028;-57
2022/04/04 02:57:55;;;;;;;7.00;6.30;;;4.40;73.20;;;;;;5085979;28;20396;-57
2022/04/04 03:00:24;;;;;;;7.25;6.10;;;4.40;73.20;;;;;;5067858;28;20119;-57
2022/04/04 03:02:51;;;;;;;6.85;6.20;;;4.40;72.90;;;;;;5076692;28;20024;-56
2022/04/04 03:05:16;;;;;;;6.90;5.65;;;4.40;72.90;;;;;;5092484;28;20031;-56
2022/04/04 03:07:42;;;;;;;7.18;6.47;;;4.30;72.90;;;;;;5067942;28;20025;-57
2022/04/04 03:10:09;;;;;;;7.63;6.60;;;4.30;72.70;;;;;;5092761;28;20024;-57
2022/04/04 03:12:45;;;;;;;7.70;6.70;;;4.30;72.70;;;;;;5092414;28;20051;-57
2022/04/04 03:15:14;;;;;;;9.40;7.50;;;4.30;72.50;;;;;;5092769;28;20067;-56
2022/04/04 03:17:45;;;;;;;7.70;6.50;;;4.30;72.40;;;;;;5092673;28;20480;-56
2022/04/04 03:20:12;;;;;;;7.18;6.47;;;4.30;72.30;;;;;;5092298;28;20043;-57
2022/04/04 03:22:40;;;;;;;7.50;6.60;;;4.30;72.10;;;;;;5083753;28;20119;-56
2022/04/04 03:25:08;;;;;;;7.55;6.60;;;4.30;72.00;;;;;;5075490;28;20050;-56
2022/04/04 03:27:36;;;;;;;7.70;6.30;;;4.30;72.00;;;;;;5090898;28;20023;-58
2022/04/04 03:30:06;;;;;;;7.93;7.13;;;4.30;71.90;;;;;;5073451;28;20088;-60
2022/04/04 03:32:32;;;;;;;7.57;6.78;;;4.30;71.90;;;;;;5091079;28;20032;-57
2022/04/04 03:34:58;;;;;;;8.13;6.35;;;4.30;72.00;;;;;;5081694;28;20135;-58
2022/04/04 03:37:24;;;;;;;8.38;6.80;;;4.30;72.00;;;;;;5078320;28;20044;-59
2022/04/04 03:39:50;;;;;;;7.32;6.63;;;4.30;71.90;;;;;;5088231;28;20055;-60
2022/04/04 03:42:17;;;;;;;8.38;7.15;;;4.30;71.60;;;;;;5090670;28;20056;-58
2022/04/04 03:44:42;;;;;;;9.20;7.22;;;4.30;71.50;;;;;;5092109;28;20025;-57
2022/04/04 03:47:10;;;;;;;8.50;7.28;;;4.30;71.50;;;;;;5091841;28;20028;-58
2022/04/04 03:49:36;;;;;;;7.22;6.47;;;4.30;71.40;;;;;;5092113;28;20036;-57
2022/04/04 03:52:03;;;;;;;7.90;7.10;;;4.40;71.40;;;;;;5092281;28;20028;-58
2022/04/04 03:54:28;;;;;;;7.35;6.20;;;4.40;71.40;;;;;;5092495;28;20024;-58
2022/04/04 03:56:54;;;;;;;7.30;6.35;;;4.40;71.10;;;;;;5091874;28;20077;-58
2022/04/04 03:59:20;;;;;;;9.32;7.13;;;4.40;71.00;;;;;;5068782;28;20025;-57
2022/04/04 04:01:45;;;;;;;7.57;6.53;;;4.50;70.80;;;;;;5069404;28;20052;-58
2022/04/04 04:04:11;;;;;;;8.43;6.88;;;4.50;70.50;;;;;;5095710;28;20073;-56
2022/04/04 04:06:37;;;;;;;7.30;6.55;;;4.50;70.40;;;;;;5073122;28;20017;-58
2022/04/04 04:09:02;;;;;;;7.22;5.85;;;4.50;70.30;;;;;;5079957;28;20028;-58
2022/04/04 04:11:29;;;;;;;7.57;6.13;;;4.50;70.30;;;;;;5095448;28;20058;-58
2022/04/04 04:13:55;;;;;;;8.23;6.25;;;4.60;70.10;;;;;;5095158;28;20076;-57
2022/04/04 04:16:23;;;;;;;8.45;6.35;;;4.60;70.00;;;;;;5092057;28;20480;-57
2022/04/04 04:18:49;;;;;;;8.38;7.07;;;4.60;69.80;;;;;;5079466;28;20515;-57
2022/04/04 04:21:15;;;;;;;7.22;5.78;;;4.70;69.80;;;;;;5095387;28;20019;-57
2022/04/04 04:23:44;;;;;;;7.80;6.75;;;4.70;69.60;;;;;;5095298;28;20021;-58
2022/04/04 04:26:13;;;;;;;7.10;6.28;;;4.70;69.30;;;;;;5093856;28;20495;-57
2022/04/04 04:28:43;;;;;;;7.00;6.22;;;4.70;69.40;;;;;;5077877;28;20040;-57
2022/04/04 04:31:09;;;;;;;8.23;6.60;;;4.80;69.20;;;;;;5089119;28;20103;-58
2022/04/04 04:33:35;;;;;;;6.82;6.13;;;4.80;69.00;;;;;;5055175;28;20104;-58
2022/04/04 04:36:00;;;;;;;6.60;6.00;;;4.80;68.90;;;;;;5081749;28;20074;-57
2022/04/04 04:38:27;;;;;;;7.65;6.85;;;4.80;68.70;;;;;;5086293;28;20017;-58
2022/04/04 04:40:53;;;;;;;7.38;6.10;;;4.80;68.60;;;;;;5091489;28;20173;-58
2022/04/04 04:43:19;;;;;;;7.53;6.72;;;4.80;68.50;;;;;;5073011;28;20034;-58
2022/04/04 04:45:45;;;;;;;6.25;5.65;;;4.90;68.50;;;;;;5070237;28;20021;-58
2022/04/04 04:48:11;;;;;;;6.47;5.70;;;4.90;68.30;;;;;;5066264;28;20108;-57
2022/04/04 04:50:37;;;;;;;7.80;6.60;;;4.90;68.30;;;;;;5075721;28;20112;-57
2022/04/04 04:53:03;;;;;;;6.43;5.78;;;5.00;68.10;;;;;;5068372;28;20468;-57
2022/04/04 04:55:30;;;;;;;7.15;6.45;;;5.10;68.20;;;;;;5064990;28;20029;-57
2022/04/04 04:57:57;;;;;;;7.50;5.88;;;5.20;68.10;;;;;;5057282;28;20024;-58
2022/04/04 05:00:27;;;;;;;6.57;5.57;;;5.40;67.50;;;;;;5057331;28;20032;-58
2022/04/04 05:05:48;;;;;;;8.38;5.97;;;5.80;66.80;;;;;;5063062;28;20124;-58
2022/04/04 05:08:13;;;;;;;6.57;5.78;;;6.10;66.50;;;;;;5075094;28;20104;-58
2022/04/04 05:10:39;;;;;;;6.82;5.97;;;6.40;65.80;;;;;;5070629;28;20020;-58
2022/04/04 05:13:05;;;;;;;7.72;5.82;;;6.70;65.20;;;;;;5066337;28;20033;-58
2022/04/04 05:15:30;;;;;;;9.02;6.03;;;6.80;64.50;;;;;;5073221;28;20025;-57
2022/04/04 05:17:56;;;;;;;7.72;6.15;;;7.00;64.10;;;;;;5056873;28;20036;-57
2022/04/04 05:20:23;;;;;;;6.30;5.22;;;7.20;64.30;;;;;;5060636;28;20036;-58
2022/04/04 05:22:48;;;;;;;6.72;5.80;;;7.60;63.90;;;;;;5078467;28;20103;-57
2022/04/04 05:25:15;;;;;;;6.43;5.07;;;8.10;63.30;;;;;;5068141;28;20477;-58
2022/04/04 05:27:41;;;;;;;6.53;5.82;;;8.60;61.90;;;;;;5064903;28;20106;-57
2022/04/04 05:30:08;;;;;;;6.65;5.53;;;9.00;60.70;;;;;;5071927;28;20182;-56
2022/04/04 05:32:34;;;;;;;6.53;5.32;;;9.30;59.70;;;;;;5078201;28;20039;-55
2022/04/04 05:35:01;;;;;;;6.18;4.72;;;9.50;59.30;;;;;;5072521;28;20025;-55
2022/04/04 05:37:27;;;;;;;5.43;4.82;;;9.70;58.90;;;;;;5061308;28;20428;-58
2022/04/04 05:39:53;;;;;;;6.25;4.75;;;9.90;58.80;;;;;;5070183;28;20044;-57
2022/04/04 05:42:18;;;;;;;5.95;5.30;;;10.10;58.30;;;;;;5064454;28;20035;-57
2022/04/04 05:44:44;;;;;;;5.20;4.70;;;10.30;57.80;;;;;;5055751;28;20032;-56
2022/04/04 05:47:11;;;;;;;5.22;4.45;;;10.60;57.10;;;;;;5061264;28;20400;-57
2022/04/04 05:49:37;;;;;;;6.40;5.45;;;10.80;56.20;;;;;;5064581;28;20020;-57
2022/04/04 05:52:04;;;;;;;5.20;4.70;;;10.90;55.40;;;;;;5067866;28;20048;-56
2022/04/04 05:54:29;;;;;;;6.38;5.22;;;11.00;55.20;;;;;;5077956;28;20518;-58
2022/04/04 05:56:55;;;;;;;5.78;5.18;;;11.10;54.50;;;;;;5057021;28;20053;-56
2022/04/04 05:59:21;;;;;;;6.20;5.00;;;11.20;54.10;;;;;;5070459;28;20071;-56
2022/04/04 06:01:47;;;;;;;5.35;4.85;;;11.30;53.90;;;;;;5068023;28;20031;-57
2022/04/04 06:04:12;;;;;;;7.05;5.10;;;11.10;53.90;;;;;;5067900;28;20024;-56
2022/04/04 06:06:38;;;;;;;7.53;5.85;;;10.80;54.30;;;;;;5066290;28;20021;-57
2022/04/04 06:09:03;;;;;;;5.88;4.95;;;10.50;54.70;;;;;;5053301;28;20044;-56
2022/04/04 06:11:29;;;;;;;5.78;5.10;;;10.10;55.00;;;;;;5058751;28;20035;-57
2022/04/04 06:13:56;;;;;;;5.60;5.00;;;9.80;55.70;;;;;;5051626;28;20036;-57
2022/04/04 06:16:22;;;;;;;7.25;5.53;;;9.40;56.10;;;;;;5066689;28;20514;-57
2022/04/04 06:18:50;;;;;;;5.32;4.82;;;9.10;56.60;;;;;;5057763;28;20021;-58
2022/04/04 06:21:16;;;;;;;6.07;5.28;;;8.80;57.60;;;;;;5054271;28;20025;-57
2022/04/04 06:23:41;;;;;;;6.50;5.80;;;8.60;57.70;;;;;;5055417;28;20075;-57
2022/04/04 06:26:07;;;;;;;8.43;5.63;;;8.40;58.20;;;;;;5066386;28;20062;-58
2022/04/04 06:28:34;;;;;;;6.47;5.70;;;8.30;58.40;;;;;;5057853;28;20032;-57
2022/04/04 06:31:01;;;;;;;5.93;5.15;;;8.10;58.30;;;;;;5065654;28;20024;-58
2022/04/04 06:33:30;;;;;;;6.10;5.50;;;7.90;58.70;;;;;;5078530;28;20035;-57
2022/04/04 06:35:55;;;;;;;6.30;5.47;;;7.80;58.70;;;;;;5062146;28;20086;-58
2022/04/04 06:38:22;;;;;;;6.05;5.32;;;7.60;59.20;;;;;;5058894;28;21027;-58
2022/04/04 06:40:49;;;;;;;6.72;5.28;;;7.60;59.50;;;;;;5052841;28;20102;-58
2022/04/04 06:43:17;;;;;;;6.68;5.55;;;7.50;59.80;;;;;;5049242;28;20028;-57
2022/04/04 06:45:44;;;;;;;6.10;5.30;;;7.50;59.70;;;;;;5056496;28;20502;-58
2022/04/04 06:48:10;;;;;;;6.70;5.95;;;7.50;60.10;;;;;;5053711;28;20615;-57
2022/04/04 06:50:36;;;;;;;6.47;5.50;;;7.50;60.60;;;;;;5054712;28;20036;-58
2022/04/04 06:53:02;;;;;;;8.88;5.70;;;7.50;60.00;;;;;;5057855;28;20036;-58
2022/04/04 06:55:28;;;;;;;6.03;5.43;;;7.50;59.70;;;;;;5050147;28;20025;-58
2022/04/04 06:57:55;;;;;;;6.65;6.05;;;7.50;59.60;;;;;;5051829;28;20044;-57
2022/04/04 07:00:22;;;;;;;6.78;6.05;;;7.40;59.70;;;;;;5054197;28;20172;-58
2022/04/04 07:02:48;;;;;;;6.35;5.55;;;7.40;60.20;;;;;;5057115;28;20140;-58
2022/04/04 07:05:14;;;;;;;6.35;5.47;;;7.40;60.50;;;;;;5049989;28;20023;-59
2022/04/04 07:07:39;;;;;;;7.47;5.60;;;7.50;60.40;;;;;;5048667;28;20135;-56
2022/04/04 07:10:06;;;;;;;7.38;5.70;;;7.50;60.50;;;;;;5051700;28;20144;-56
2022/04/04 07:12:33;;;;;;;7.07;5.75;;;7.60;60.40;;;;;;5060905;28;20132;-56
2022/04/04 07:14:58;;;;;;;6.90;5.68;;;7.60;60.50;;;;;;5057739;28;20032;-56
2022/04/04 07:17:24;;;;;;;7.78;5.63;;;7.60;60.40;;;;;;5050018;28;20040;-58
2022/04/04 07:19:50;;;;;;;6.85;5.70;;;7.60;60.50;;;;;;5057984;28;20072;-57
2022/04/04 07:22:16;;;;;;;6.43;5.57;;;7.60;60.00;;;;;;5055012;28;20032;-57
2022/04/04 07:24:42;;;;;;;6.63;5.57;;;7.60;59.30;;;;;;5052007;28;20028;-57
2022/04/04 07:27:08;;;;;;;8.27;5.70;;;7.60;58.90;;;;;;5048086;28;20068;-55
2022/04/04 07:29:34;;;;;;;6.22;5.63;;;7.50;59.10;;;;;;5050851;28;20032;-58
2022/04/04 07:31:59;;;;;;;6.28;5.28;;;7.50;59.00;;;;;;5051602;28;20033;-53
2022/04/04 07:34:25;;;;;;;6.65;5.53;;;7.50;58.80;;;;;;5064515;28;20032;-57
2022/04/04 07:36:51;;;;;;;5.72;5.05;;;7.50;58.70;;;;;;5060862;28;20136;-57
2022/04/04 07:39:16;;;;;;;6.60;5.63;;;7.50;58.20;;;;;;5064944;28;20047;-57
2022/04/04 07:41:42;;;;;;;6.80;5.10;;;7.40;58.30;;;;;;5057176;28;20029;-57
2022/04/04 07:44:08;;;;;;;6.63;6.03;;;7.40;57.90;;;;;;5048819;28;20025;-57
2022/04/04 07:46:33;;;;;;;7.22;5.57;;;7.40;57.80;;;;;;5053321;28;20053;-57
2022/04/04 07:48:59;;;;;;;6.10;5.50;;;7.40;57.90;;;;;;5052051;28;20067;-57
2022/04/04 07:51:26;;;;;;;6.05;5.38;;;7.40;57.90;;;;;;5055344;28;20052;-56
2022/04/04 07:53:52;;;;;;;6.78;6.13;;;7.40;58.30;;;;;;5051451;28;20119;-57
2022/04/04 07:56:19;;;;;;;6.93;6.07;;;7.40;58.80;;;;;;5045000;28;20024;-58
2022/04/04 07:58:45;;;;;;;7.88;6.07;;;7.40;58.80;;;;;;5052548;28;20112;-57
2022/04/04 08:01:11;;;;;;;5.72;4.82;;;7.40;58.90;;;;;;5052986;28;20043;-59
2022/04/04 08:03:36;;;;;;;6.05;5.25;;;7.50;58.40;;;;;;5063011;28;20046;-58
2022/04/04 08:06:02;;;;;;;5.97;5.30;;;7.50;57.70;;;;;;5059910;28;20029;-58
2022/04/04 08:08:29;;;;;;;7.20;5.30;;;7.50;57.40;;;;;;5056959;28;20033;-58
2022/04/04 08:10:55;;;;;;;6.82;5.65;;;7.50;57.30;;;;;;5060538;28;20115;-58
2022/04/04 08:13:20;;;;;;;5.72;4.82;;;7.50;57.10;;;;;;5066778;28;20147;-57
2022/04/04 08:15:46;;;;;;;5.82;5.22;;;7.50;57.10;;;;;;5060851;28;20020;-58
2022/04/04 08:18:12;;;;;;;7.50;5.75;;;7.50;56.70;;;;;;5050348;28;20182;-58
2022/04/04 08:20:38;;;;;;;5.50;5.00;;;7.50;56.70;;;;;;5048333;28;20175;-57
2022/04/04 08:23:03;;;;;;;5.78;5.18;;;7.50;56.10;;;;;;5050551;28;20169;-56
2022/04/04 08:25:29;;;;;;;5.95;5.05;;;7.50;56.10;;;;;;5057450;28;20068;-58
2022/04/04 08:27:55;;;;;;;7.25;5.40;;;7.50;56.30;;;;;;5049311;28;20024;-58
2022/04/04 08:30:21;;;;;;;6.80;5.63;;;7.50;56.10;;;;;;5054542;28;20093;-57
2022/04/04 08:32:48;;;;;;;5.60;4.80;;;7.50;56.20;;;;;;5052558;28;20055;-56
2022/04/04 08:35:15;;;;;;;5.47;4.97;;;7.50;56.20;;;;;;5061975;28;20035;-56
2022/04/04 08:37:43;;;;;;;5.97;4.45;;;7.60;55.90;;;;;;5060977;28;20552;-57
2022/04/04 08:40:11;;;;;;;4.82;4.20;;;7.60;55.80;;;;;;5060765;28;20526;-58
2022/04/04 08:42:37;;;;;;;4.85;4.35;;;7.60;55.30;;;;;;5049821;28;20795;-57
2022/04/04 08:45:05;;;;;;;7.68;4.25;;;7.60;55.00;;;;;;5049934;28;20539;-57
2022/04/04 08:47:32;;;;;;;5.78;4.07;;;7.60;54.10;;;;;;5055716;28;20024;-57
2022/04/04 08:49:58;;;;;;;5.28;4.30;;;7.60;53.60;;;;;;5055731;28;20116;-57
2022/04/04 08:52:25;;;;;;;5.72;4.57;;;7.50;53.40;;;;;;5052195;28;20052;-57
2022/04/04 08:54:51;;;;;;;5.63;4.50;;;7.50;53.30;;;;;;5053169;28;20029;-56
2022/04/04 08:57:17;;;;;;;6.32;4.40;;;7.50;53.00;;;;;;5057850;28;20056;-57
2022/04/04 08:59:44;;;;;;;5.82;4.68;;;7.50;52.70;;;;;;5052363;28;20592;-58
2022/04/04 09:02:11;;;;;;;6.65;4.68;;;7.50;52.10;;;;;;5040533;28;20058;-57
2022/04/04 09:04:38;;;;;;;4.95;4.10;;;7.50;51.50;;;;;;5048915;28;20037;-57
2022/04/04 09:07:09;;;;;;;4.53;4.10;;;7.50;51.30;;;;;;5052206;28;20752;-57
2022/04/04 09:09:47;;;;;;;5.45;4.70;;;7.50;51.00;;;;;;5057228;28;20461;-57
2022/04/04 09:12:19;;;;;;;4.50;4.10;;;7.50;50.50;;;;;;5059979;28;20059;-57
2022/04/04 09:14:49;;;;;;;5.38;4.30;;;7.50;50.60;;;;;;5051968;28;20024;-57
2022/04/04 09:17:17;;;;;;;5.15;4.35;;;7.60;50.50;;;;;;5055992;28;20741;-57
2022/04/04 09:19:43;;;;;;;5.72;4.60;;;7.60;50.70;;;;;;5049002;28;20115;-57
2022/04/04 09:22:14;;;;;;;4.78;4.22;;;7.60;49.60;;;;;;5054678;28;20032;-57
2022/04/04 09:24:44;;;;;;;4.70;4.30;;;7.70;49.20;;;;;;5060502;28;20029;-56
2022/04/04 09:27:18;;;;;;;4.80;4.30;;;7.70;49.30;;;;;;5059235;28;20070;-57
2022/04/04 09:29:45;;;;;;;5.07;4.57;;;7.80;49.00;;;;;;5055987;28;20033;-57
2022/04/04 09:32:14;;;;;;;4.63;4.07;;;7.90;49.20;;;;;;5048604;28;20032;-59
2022/04/04 09:35:12;;;;;;;7.25;4.45;;;8.00;49.30;;;;;;5055899;28;20110;-57
2022/04/04 09:37:50;;;;;;;4.93;4.32;;;8.10;49.00;;;;;;5056651;28;20041;-57
2022/04/04 09:40:21;;;;;;;6.40;4.25;;;8.20;49.10;;;;;;5053039;28;20066;-58
2022/04/04 09:42:50;;;;;;;5.95;4.25;;;8.20;48.70;;;;;;5055983;28;20756;-58
2022/04/04 09:45:16;;;;;;;4.60;4.10;;;8.30;48.90;;;;;;5059329;28;20059;-56
2022/04/04 09:47:48;;;;;;;5.10;3.92;;;8.40;49.10;;;;;;5053383;28;20180;-56
2022/04/04 09:50:39;;;;;;;5.25;4.53;;;8.40;49.10;;;;;;5050312;28;20039;-57
2022/04/04 09:53:29;;;;;;;6.93;4.82;;;8.50;49.20;;;;;;5050300;28;20033;-57
2022/04/04 09:55:57;;;;;;;5.78;4.25;;;8.50;49.00;;;;;;5049737;28;20045;-57
2022/04/04 09:58:27;;;;;;;5.07;4.40;;;8.50;49.20;;;;;;5050549;28;20032;-57
2022/04/04 10:00:55;;;;;;;5.15;4.35;;;8.50;48.50;;;;;;5053922;28;20032;-56
2022/04/04 10:03:22;;;;;;;6.20;4.57;;;8.50;48.40;;;;;;5051567;28;20047;-57
2022/04/04 10:05:57;;;;;;;5.22;4.45;;;8.50;48.60;;;;;;5051075;28;20039;-57
2022/04/04 10:08:26;;;;;;;4.93;4.03;;;8.50;48.50;;;;;;5043605;28;20029;-57
2022/04/04 10:10:54;;;;;;;5.03;4.18;;;8.40;48.60;;;;;;5054155;28;20484;-57
2022/04/04 10:13:20;;;;;;;4.60;4.20;;;8.40;48.50;;;;;;5054915;28;20036;-57
2022/04/04 10:15:46;;;;;;;5.57;4.40;;;8.40;48.20;;;;;;5056799;28;20124;-57
2022/04/04 10:18:14;;;;;;;5.90;5.10;;;8.40;47.80;;;;;;5060338;28;20138;-57
2022/04/04 10:20:41;;;;;;;5.80;5.03;;;8.40;47.60;;;;;;5057794;28;20025;-57
2022/04/04 10:23:12;;;;;;;5.15;4.47;;;8.40;48.10;;;;;;5059374;28;20078;-57
2022/04/04 10:25:39;;;;;;;6.05;5.13;;;8.50;48.90;;;;;;5051902;28;20027;-57
2022/04/04 10:28:06;;;;;;;7.00;5.13;;;8.50;49.40;;;;;;5054985;28;20061;-57
2022/04/04 10:30:42;;;;;;;5.70;5.05;;;8.60;49.70;;;;;;5055043;28;20043;-58
2022/04/04 10:33:19;;;;;;;4.90;4.40;;;8.70;49.10;;;;;;5053761;28;20033;-57
2022/04/04 10:36:03;;;;;;;4.97;4.28;;;8.80;47.60;;;;;;5050026;28;20820;-57
2022/04/04 10:38:31;;;;;;;5.10;4.55;;;8.90;46.80;;;;;;5055594;28;20085;-57
2022/04/04 10:40:58;;;;;;;5.57;4.50;;;8.90;46.80;;;;;;5049330;28;20140;-56
2022/04/04 10:43:24;;;;;;;5.78;4.50;;;9.00;46.40;;;;;;5051865;28;20095;-57
2022/04/04 10:46:07;;;;;;;4.82;4.25;;;9.00;46.90;;;;;;5056236;28;20488;-57
2022/04/04 10:48:35;;;;;;;4.97;4.47;;;9.10;46.60;;;;;;5056230;28;20086;-57
2022/04/04 10:51:20;;;;;;;4.75;4.25;;;9.00;47.10;;;;;;5054344;28;20300;-58
2022/04/04 10:53:49;;;;;;;5.45;4.68;;;9.10;47.50;;;;;;5053983;28;20404;-60
2022/04/04 10:56:26;;;;;;;5.20;4.70;;;9.10;47.30;;;;;;5055209;28;20443;-59
2022/04/04 10:59:13;;;;;;;4.80;4.10;;;9.10;46.90;;;;;;5059557;28;20538;-57
2022/04/04 11:01:39;;;;;;;5.00;4.15;;;9.20;46.20;;;;;;5053822;28;20041;-58
2022/04/04 11:04:05;;;;;;;5.93;4.65;;;9.10;45.50;;;;;;5056566;28;20154;-58
2022/04/04 11:09:31;;;;;;;6.82;4.78;;;9.10;45.40;;;;;;5065010;28;20073;-57
2022/04/04 11:12:00;;;;;;;5.30;4.30;;;9.20;45.70;;;;;;5069278;28;20024;-58
2022/04/04 11:14:31;;;;;;;4.78;4.28;;;9.20;45.80;;;;;;5062888;28;20031;-58
2022/04/04 11:17:08;;;;;;;4.80;4.30;;;9.30;45.50;;;;;;5051611;28;20032;-56
2022/04/04 11:19:47;;;;;;;6.90;4.70;;;9.30;45.00;;;;;;5056823;28;20032;-58
2022/04/04 11:22:22;;;;;;;5.97;4.65;;;9.30;44.70;;;;;;5057882;28;20032;-58
2022/04/04 11:25:04;;;;;;;6.60;5.10;;;9.40;45.00;;;;;;5046419;28;20489;-59
2022/04/04 11:27:37;;;;;;;7.75;5.00;;;9.40;44.90;;;;;;5058801;28;20025;-58
2022/04/04 11:30:13;;;;;;;5.30;4.53;;;9.30;45.10;;;;;;5060908;28;20090;-57
2022/04/04 11:32:43;;;;;;;5.70;4.68;;;9.40;45.20;;;;;;5054704;28;20044;-58
2022/04/04 11:35:23;;;;;;;4.88;4.10;;;9.30;45.20;;;;;;5060701;28;20097;-58
2022/04/04 11:37:56;;;;;;;4.97;4.47;;;9.30;45.20;;;;;;5058848;28;20401;-60
2022/04/04 11:40:33;;;;;;;5.95;4.80;;;9.30;45.00;;;;;;5061657;28;20051;-58
2022/04/04 11:43:02;;;;;;;4.88;4.38;;;9.40;45.20;;;;;;5062924;28;20712;-58
2022/04/04 11:45:32;;;;;;;5.80;4.82;;;9.40;44.90;;;;;;5061619;28;20482;-58
2022/04/04 11:48:02;;;;;;;6.85;4.75;;;9.50;44.50;;;;;;5062772;28;20028;-56
2022/04/04 11:50:30;;;;;;;5.50;4.75;;;9.50;44.90;;;;;;5057866;28;20063;-57
2022/04/04 11:53:02;;;;;;;5.53;4.68;;;9.60;45.30;;;;;;5056077;28;20041;-58
2022/04/04 11:55:30;;;;;;;5.70;4.70;;;9.60;45.60;;;;;;5059831;28;20078;-58
2022/04/04 11:57:58;;;;;;;5.90;4.60;;;9.60;45.90;;;;;;5059585;28;20381;-56
2022/04/04 12:00:30;;;;;;;6.65;4.47;;;9.60;45.70;;;;;;5061318;28;20572;-58
2022/04/04 12:03:01;;;;;;;5.47;4.30;;;9.60;45.60;;;;;;5061217;28;20392;-58
2022/04/04 12:05:28;;;;;;;4.78;4.28;;;9.60;45.00;;;;;;5062431;28;20571;-56
2022/04/04 12:07:54;;;;;;;4.38;3.90;;;9.50;44.50;;;;;;5063698;28;20042;-58
2022/04/04 12:10:29;;;;;;;7.90;4.57;;;9.40;44.20;;;;;;5056223;28;20033;-58
2022/04/04 12:13:05;;;;;;;5.57;4.60;;;9.40;44.20;;;;;;5057910;28;20037;-59
2022/04/04 12:15:34;;;;;;;5.13;4.45;;;9.30;44.30;;;;;;5055254;28;20131;-58
2022/04/04 12:18:02;;;;;;;5.78;4.38;;;9.30;44.40;;;;;;5058066;28;20047;-58
2022/04/04 12:20:45;;;;;;;5.68;4.90;;;9.30;44.70;;;;;;5057579;28;20036;-58
2022/04/04 12:26:02;;;;;;;6.15;4.65;;;9.30;44.90;;;;;;5058286;28;20435;-58
2022/04/04 12:28:30;;;;;;;5.78;4.38;;;9.30;45.10;;;;;;5057301;28;20111;-58
2022/04/04 12:30:57;;;;;;;5.07;4.15;;;9.40;44.60;;;;;;5054399;28;20032;-58
2022/04/04 12:33:31;;;;;;;5.07;4.28;;;9.30;44.20;;;;;;5058622;28;20038;-58
2022/04/04 12:35:57;;;;;;;4.88;4.38;;;9.40;43.80;;;;;;5060727;28;20047;-58
2022/04/04 12:38:49;;;;;;;5.78;4.35;;;9.30;44.10;;;;;;5052649;28;20032;-57
2022/04/04 12:41:16;;;;;;;;;;;9.30;44.30;;;;;;5055105;28;20365;-58
2022/04/04 12:43:46;;;;;;;5.72;4.65;;;9.20;45.00;;;;;;5050699;28;19923;-57
2022/04/04 12:46:27;;;;;;;5.32;4.40;;;9.30;45.40;;;;;;5070616;28;20491;-57
2022/04/04 12:48:55;;;;;;;6.03;4.07;;;9.30;45.20;;;;;;5054538;28;20033;-58
2022/04/04 12:51:31;;;;;;;4.68;4.07;;;9.40;44.90;;;;;;5052355;28;20043;-56
2022/04/04 12:54:00;;;;;;;4.07;3.63;;;9.50;44.50;;;;;;5055784;28;20028;-58
2022/04/04 12:56:27;;;;;;;4.80;4.30;;;9.50;44.10;;;;;;5055383;28;20041;-58
2022/04/04 12:59:08;;;;;;;6.22;3.92;;;9.50;43.90;;;;;;5057368;28;21968;-58
2022/04/04 13:01:35;;;;;;;6.13;4.03;;;9.60;43.60;;;;;;5055744;28;20060;-58
2022/04/04 13:04:02;;;;;;;4.10;3.53;;;9.50;43.40;;;;;;5054072;28;20699;-58
2022/04/04 13:06:33;;;;;;;4.82;4.00;;;9.40;43.20;;;;;;5052713;28;20056;-59
2022/04/04 13:09:02;;;;;;;4.80;4.13;;;9.40;43.30;;;;;;5051771;28;20044;-59
2022/04/04 13:11:30;;;;;;;7.30;4.40;;;9.40;43.60;;;;;;5055507;28;20226;-58
2022/04/04 13:14:06;;;;;;;4.53;4.07;;;9.40;43.70;;;;;;5052252;28;20032;-56